sensor_id;sensor_type;location;lat;lon;timestamp;pressure;altitude;pressure_sealevel;temperature;humidity
79455;BME280;68900;52.134;5.420;2023-12-07T00:02:06;102157.81;;;0.52;96.62
79455;BME280;68900;52.134;5.420;2023-12-07T00:04:36;102159.72;;;0.48;96.54
79455;BME280;68900;52.134;5.420;2023-12-07T00:07:02;102162.50;;;0.45;97.30
79455;BME280;68900;52.134;5.420;2023-12-07T00:09:29;102155.50;;;0.42;97.32
79455;BME280;68900;52.134;5.420;2023-12-07T00:11:55;102151.97;;;0.42;97.17
79455;BME280;68900;52.134;5.420;2023-12-07T00:14:22;102153.66;;;0.44;97.04
79455;BME280;68900;52.134;5.420;2023-12-07T00:16:49;102158.97;;;0.44;96.57
79455;BME280;68900;52.134;5.420;2023-12-07T00:19:15;102161.69;;;0.43;97.07
79455;BME280;68900;52.134;5.420;2023-12-07T00:21:42;102165.25;;;0.42;97.43
79455;BME280;68900;52.134;5.420;2023-12-07T00:24:09;102164.44;;;0.40;97.47
79455;BME280;68900;52.134;5.420;2023-12-07T00:26:35;102155.63;;;0.39;97.19
79455;BME280;68900;52.134;5.420;2023-12-07T00:29:02;102159.19;;;0.38;96.71
79455;BME280;68900;52.134;5.420;2023-12-07T00:31:28;102153.84;;;0.40;96.80
79455;BME280;68900;52.134;5.420;2023-12-07T00:33:55;102149.44;;;0.39;96.64
79455;BME280;68900;52.134;5.420;2023-12-07T00:36:21;102147.69;;;0.38;96.94
79455;BME280;68900;52.134;5.420;2023-12-07T00:38:48;102142.41;;;0.38;96.80
79455;BME280;68900;52.134;5.420;2023-12-07T00:41:15;102139.81;;;0.36;97.24
79455;BME280;68900;52.134;5.420;2023-12-07T00:43:41;102142.50;;;0.35;96.56
79455;BME280;68900;52.134;5.420;2023-12-07T00:46:08;102138.19;;;0.32;96.59
79455;BME280;68900;52.134;5.420;2023-12-07T00:48:34;102151.38;;;0.34;96.62
79455;BME280;68900;52.134;5.420;2023-12-07T00:51:02;102146.09;;;0.34;97.21
79455;BME280;68900;52.134;5.420;2023-12-07T00:53:29;102142.63;;;0.32;97.32
79455;BME280;68900;52.134;5.420;2023-12-07T00:55:55;102144.47;;;0.30;96.97
79455;BME280;68900;52.134;5.420;2023-12-07T00:58:22;102148.94;;;0.28;96.88
79455;BME280;68900;52.134;5.420;2023-12-07T01:00:49;102153.44;;;0.26;97.01
79455;BME280;68900;52.134;5.420;2023-12-07T01:03:16;102141.09;;;0.25;96.59
79455;BME280;68900;52.134;5.420;2023-12-07T01:05:43;102134.00;;;0.25;96.93
79455;BME280;68900;52.134;5.420;2023-12-07T01:08:09;102140.34;;;0.21;96.76
79455;BME280;68900;52.134;5.420;2023-12-07T01:10:36;102135.16;;;0.18;96.80
79455;BME280;68900;52.134;5.420;2023-12-07T01:13:05;102143.03;;;0.20;97.05
79455;BME280;68900;52.134;5.420;2023-12-07T01:15:32;102143.97;;;0.19;96.51
79455;BME280;68900;52.134;5.420;2023-12-07T01:17:59;102143.97;;;0.19;96.73
79455;BME280;68900;52.134;5.420;2023-12-07T01:20:25;102152.88;;;0.18;96.90
79455;BME280;68900;52.134;5.420;2023-12-07T01:22:52;102151.25;;;0.14;96.77
79455;BME280;68900;52.134;5.420;2023-12-07T01:25:18;102155.59;;;0.15;96.93
79455;BME280;68900;52.134;5.420;2023-12-07T01:27:49;102157.44;;;0.13;97.12
79455;BME280;68900;52.134;5.420;2023-12-07T01:30:16;102165.44;;;0.11;96.75
79455;BME280;68900;52.134;5.420;2023-12-07T01:32:43;102159.25;;;0.12;96.34
79455;BME280;68900;52.134;5.420;2023-12-07T01:35:10;102160.09;;;0.13;96.46
79455;BME280;68900;52.134;5.420;2023-12-07T01:37:37;102157.44;;;0.13;96.76
79455;BME280;68900;52.134;5.420;2023-12-07T01:40:04;102163.63;;;0.13;96.74
79455;BME280;68900;52.134;5.420;2023-12-07T01:42:37;102162.75;;;0.13;96.80
79455;BME280;68900;52.134;5.420;2023-12-07T01:45:05;102173.38;;;0.13;96.67
79455;BME280;68900;52.134;5.420;2023-12-07T01:47:35;102168.97;;;0.12;96.59
79455;BME280;68900;52.134;5.420;2023-12-07T01:50:02;102164.66;;;0.09;96.85
79455;BME280;68900;52.134;5.420;2023-12-07T01:52:38;102163.78;;;0.09;96.88
79455;BME280;68900;52.134;5.420;2023-12-07T01:55:06;102170.88;;;0.08;96.77
79455;BME280;68900;52.134;5.420;2023-12-07T01:57:34;102162.03;;;0.08;96.53
79455;BME280;68900;52.134;5.420;2023-12-07T02:00:01;102160.31;;;0.07;96.99
79455;BME280;68900;52.134;5.420;2023-12-07T02:02:28;102168.25;;;0.07;96.81
79455;BME280;68900;52.134;5.420;2023-12-07T02:04:54;102169.25;;;0.04;97.15
79455;BME280;68900;52.134;5.420;2023-12-07T02:07:22;102175.34;;;0.06;96.07
79455;BME280;68900;52.134;5.420;2023-12-07T02:09:49;102160.25;;;0.08;96.36
79455;BME280;68900;52.134;5.420;2023-12-07T02:12:15;102163.00;;;0.05;97.17
79455;BME280;68900;52.134;5.420;2023-12-07T02:14:42;102164.03;;;0.01;96.82
79455;BME280;68900;52.134;5.420;2023-12-07T02:17:15;102161.44;;;-0.01;96.58
79455;BME280;68900;52.134;5.420;2023-12-07T02:19:47;102159.66;;;0.00;96.93
79455;BME280;68900;52.134;5.420;2023-12-07T02:22:28;102157.06;;;-0.02;96.91
79455;BME280;68900;52.134;5.420;2023-12-07T02:25:10;102164.91;;;0.02;97.31
79455;BME280;68900;52.134;5.420;2023-12-07T02:27:40;102163.22;;;-0.01;96.75
79455;BME280;68900;52.134;5.420;2023-12-07T02:30:09;102162.41;;;-0.03;97.01
79455;BME280;68900;52.134;5.420;2023-12-07T02:32:37;102167.75;;;-0.05;96.76
79455;BME280;68900;52.134;5.420;2023-12-07T02:35:05;102162.50;;;-0.06;96.79
79455;BME280;68900;52.134;5.420;2023-12-07T02:37:38;102159.91;;;-0.08;96.37
79455;BME280;68900;52.134;5.420;2023-12-07T02:40:08;102166.19;;;-0.10;97.04
79455;BME280;68900;52.134;5.420;2023-12-07T02:42:38;102160.97;;;-0.13;97.03
79455;BME280;68900;52.134;5.420;2023-12-07T02:45:14;102162.72;;;-0.12;96.45
79455;BME280;68900;52.134;5.420;2023-12-07T02:47:44;102160.94;;;-0.12;96.72
79455;BME280;68900;52.134;5.420;2023-12-07T02:50:12;102154.72;;;-0.11;96.63
79455;BME280;68900;52.134;5.420;2023-12-07T02:52:39;102152.84;;;-0.09;96.63
79455;BME280;68900;52.134;5.420;2023-12-07T02:55:06;102147.56;;;-0.09;97.29
79455;BME280;68900;52.134;5.420;2023-12-07T02:57:33;102143.22;;;-0.11;97.24
79455;BME280;68900;52.134;5.420;2023-12-07T03:00:00;102146.78;;;-0.12;97.23
79455;BME280;68900;52.134;5.420;2023-12-07T03:02:30;102151.19;;;-0.11;97.07
79455;BME280;68900;52.134;5.420;2023-12-07T03:04:57;102160.00;;;-0.11;96.79
79455;BME280;68900;52.134;5.420;2023-12-07T03:07:24;102159.19;;;-0.13;96.73
79455;BME280;68900;52.134;5.420;2023-12-07T03:09:50;102148.66;;;-0.14;97.00
79455;BME280;68900;52.134;5.420;2023-12-07T03:12:17;102160.06;;;-0.12;97.04
79455;BME280;68900;52.134;5.420;2023-12-07T03:14:43;102160.94;;;-0.12;97.41
79455;BME280;68900;52.134;5.420;2023-12-07T03:17:10;102158.16;;;-0.09;97.67
79455;BME280;68900;52.134;5.420;2023-12-07T03:19:38;102162.59;;;-0.09;97.08
79455;BME280;68900;52.134;5.420;2023-12-07T03:22:05;102160.81;;;-0.09;97.84
79455;BME280;68900;52.134;5.420;2023-12-07T03:24:36;102165.25;;;-0.09;97.47
79455;BME280;68900;52.134;5.420;2023-12-07T03:27:03;102171.41;;;-0.09;97.54
79455;BME280;68900;52.134;5.420;2023-12-07T03:29:31;102168.75;;;-0.09;97.29
79455;BME280;68900;52.134;5.420;2023-12-07T03:31:58;102171.41;;;-0.09;97.42
79455;BME280;68900;52.134;5.420;2023-12-07T03:34:24;102172.28;;;-0.08;97.13
79455;BME280;68900;52.134;5.420;2023-12-07T03:36:51;102161.75;;;-0.10;96.99
79455;BME280;68900;52.134;5.420;2023-12-07T03:39:17;102173.28;;;-0.11;97.40
79455;BME280;68900;52.134;5.420;2023-12-07T03:41:51;102166.25;;;-0.13;97.16
79455;BME280;68900;52.134;5.420;2023-12-07T03:44:18;102172.44;;;-0.13;97.42
79455;BME280;68900;52.134;5.420;2023-12-07T03:46:45;102170.00;;;-0.19;97.41
79455;BME280;68900;52.134;5.420;2023-12-07T03:49:11;102178.88;;;-0.20;96.88
79455;BME280;68900;52.134;5.420;2023-12-07T03:51:38;102171.88;;;-0.22;97.05
79455;BME280;68900;52.134;5.420;2023-12-07T03:54:05;102171.00;;;-0.23;97.12
79455;BME280;68900;52.134;5.420;2023-12-07T03:56:32;102177.09;;;-0.19;96.82
79455;BME280;68900;52.134;5.420;2023-12-07T03:58:59;102169.19;;;-0.21;97.52
79455;BME280;68900;52.134;5.420;2023-12-07T04:01:27;102171.06;;;-0.24;97.46
79455;BME280;68900;52.134;5.420;2023-12-07T04:03:55;102165.00;;;-0.28;97.58
79455;BME280;68900;52.134;5.420;2023-12-07T04:06:23;102167.66;;;-0.28;97.15
79455;BME280;68900;52.134;5.420;2023-12-07T04:08:50;102163.16;;;-0.26;97.61
79455;BME280;68900;52.134;5.420;2023-12-07T04:11:16;102168.63;;;-0.30;97.81
79455;BME280;68900;52.134;5.420;2023-12-07T04:13:43;102174.94;;;-0.34;97.80
79455;BME280;68900;52.134;5.420;2023-12-07T04:16:10;102168.81;;;-0.36;97.08
79455;BME280;68900;52.134;5.420;2023-12-07T04:18:37;102180.22;;;-0.34;97.70
79455;BME280;68900;52.134;5.420;2023-12-07T04:21:04;102167.94;;;-0.37;97.10
79455;BME280;68900;52.134;5.420;2023-12-07T04:23:34;102174.06;;;-0.35;97.92
79455;BME280;68900;52.134;5.420;2023-12-07T04:26:04;102171.38;;;-0.33;97.95
79455;BME280;68900;52.134;5.420;2023-12-07T04:28:31;102175.75;;;-0.32;98.04
79455;BME280;68900;52.134;5.420;2023-12-07T04:30:57;102180.09;;;-0.30;97.77
79455;BME280;68900;52.134;5.420;2023-12-07T04:33:24;102175.69;;;-0.31;97.97
79455;BME280;68900;52.134;5.420;2023-12-07T04:35:50;102167.81;;;-0.32;97.55
79455;BME280;68900;52.134;5.420;2023-12-07T04:38:17;102176.56;;;-0.30;97.79
79455;BME280;68900;52.134;5.420;2023-12-07T04:40:44;102167.75;;;-0.31;97.95
79455;BME280;68900;52.134;5.420;2023-12-07T04:43:10;102171.41;;;-0.35;97.87
79455;BME280;68900;52.134;5.420;2023-12-07T04:45:40;102168.81;;;-0.36;98.56
79455;BME280;68900;52.134;5.420;2023-12-07T04:48:06;102174.06;;;-0.35;98.09
79455;BME280;68900;52.134;5.420;2023-12-07T04:50:33;102165.34;;;-0.38;97.76
79455;BME280;68900;52.134;5.420;2023-12-07T04:53:00;102171.56;;;-0.39;98.48
79455;BME280;68900;52.134;5.420;2023-12-07T04:55:26;102177.84;;;-0.42;98.16
79455;BME280;68900;52.134;5.420;2023-12-07T04:57:53;102175.13;;;-0.40;98.47
79455;BME280;68900;52.134;5.420;2023-12-07T05:00:20;102169.88;;;-0.42;98.36
79455;BME280;68900;52.134;5.420;2023-12-07T05:02:51;102172.63;;;-0.45;98.58
79455;BME280;68900;52.134;5.420;2023-12-07T05:05:17;102157.69;;;-0.48;98.80
79455;BME280;68900;52.134;5.420;2023-12-07T05:07:44;102162.91;;;-0.46;98.47
79455;BME280;68900;52.134;5.420;2023-12-07T05:10:13;102161.94;;;-0.42;98.66
79455;BME280;68900;52.134;5.420;2023-12-07T05:12:39;102166.38;;;-0.42;98.20
79455;BME280;68900;52.134;5.420;2023-12-07T05:15:06;102165.38;;;-0.40;98.94
79455;BME280;68900;52.134;5.420;2023-12-07T05:17:33;102163.66;;;-0.41;98.59
79455;BME280;68900;52.134;5.420;2023-12-07T05:20:00;102154.81;;;-0.41;98.99
79455;BME280;68900;52.134;5.420;2023-12-07T05:22:28;102155.66;;;-0.39;99.49
79455;BME280;68900;52.134;5.420;2023-12-07T05:24:55;102154.00;;;-0.42;99.22
79455;BME280;68900;52.134;5.420;2023-12-07T05:27:25;102161.88;;;-0.40;99.52
79455;BME280;68900;52.134;5.420;2023-12-07T05:29:51;102153.13;;;-0.42;99.26
79455;BME280;68900;52.134;5.420;2023-12-07T05:32:18;102148.00;;;-0.49;99.18
79455;BME280;68900;52.134;5.420;2023-12-07T05:34:44;102147.88;;;-0.46;99.05
79455;BME280;68900;52.134;5.420;2023-12-07T05:37:12;102153.16;;;-0.44;99.68
79455;BME280;68900;52.134;5.420;2023-12-07T05:39:38;102147.84;;;-0.44;99.82
79455;BME280;68900;52.134;5.420;2023-12-07T05:42:05;102147.88;;;-0.46;99.69
79455;BME280;68900;52.134;5.420;2023-12-07T05:44:32;102143.47;;;-0.45;99.96
79455;BME280;68900;52.134;5.420;2023-12-07T05:46:58;102147.84;;;-0.44;99.36
79455;BME280;68900;52.134;5.420;2023-12-07T05:49:25;102146.06;;;-0.43;99.68
79455;BME280;68900;52.134;5.420;2023-12-07T05:51:53;102146.22;;;-0.48;99.88
79455;BME280;68900;52.134;5.420;2023-12-07T05:54:20;102140.97;;;-0.50;100.00
79455;BME280;68900;52.134;5.420;2023-12-07T05:56:49;102149.78;;;-0.49;100.00
79455;BME280;68900;52.134;5.420;2023-12-07T05:59:16;102148.88;;;-0.48;100.00
79455;BME280;68900;52.134;5.420;2023-12-07T06:01:43;102143.53;;;-0.47;100.00
79455;BME280;68900;52.134;5.420;2023-12-07T06:04:10;102152.16;;;-0.41;100.00
79455;BME280;68900;52.134;5.420;2023-12-07T06:06:38;102149.53;;;-0.41;100.00
79455;BME280;68900;52.134;5.420;2023-12-07T06:09:05;102147.66;;;-0.38;100.00
79455;BME280;68900;52.134;5.420;2023-12-07T06:11:32;102149.34;;;-0.35;100.00
79455;BME280;68900;52.134;5.420;2023-12-07T06:14:00;102156.34;;;-0.33;100.00
79455;BME280;68900;52.134;5.420;2023-12-07T06:16:26;102158.88;;;-0.30;100.00
79455;BME280;68900;52.134;5.420;2023-12-07T06:18:53;102165.06;;;-0.29;100.00
79455;BME280;68900;52.134;5.420;2023-12-07T06:21:20;102164.16;;;-0.28;100.00
79455;BME280;68900;52.134;5.420;2023-12-07T06:23:47;102169.38;;;-0.27;100.00
79455;BME280;68900;52.134;5.420;2023-12-07T06:26:13;102157.81;;;-0.24;100.00
79455;BME280;68900;52.134;5.420;2023-12-07T06:28:40;102173.66;;;-0.23;100.00
79455;BME280;68900;52.134;5.420;2023-12-07T06:31:09;102172.75;;;-0.22;100.00
79455;BME280;68900;52.134;5.420;2023-12-07T06:33:35;102166.56;;;-0.22;100.00
79455;BME280;68900;52.134;5.420;2023-12-07T06:36:02;102169.28;;;-0.24;100.00
79455;BME280;68900;52.134;5.420;2023-12-07T06:38:31;102170.09;;;-0.22;100.00
79455;BME280;68900;52.134;5.420;2023-12-07T06:40:58;102169.19;;;-0.21;100.00
79455;BME280;68900;52.134;5.420;2023-12-07T06:43:30;102170.00;;;-0.19;100.00
79455;BME280;68900;52.134;5.420;2023-12-07T06:45:57;102169.94;;;-0.17;100.00
79455;BME280;68900;52.134;5.420;2023-12-07T06:48:24;102177.09;;;-0.19;100.00
79455;BME280;68900;52.134;5.420;2023-12-07T06:50:53;102169.06;;;-0.18;100.00
79455;BME280;68900;52.134;5.420;2023-12-07T06:53:20;102175.22;;;-0.16;100.00
79455;BME280;68900;52.134;5.420;2023-12-07T06:55:49;102177.66;;;-0.10;100.00
79455;BME280;68900;52.134;5.420;2023-12-07T06:58:18;102180.25;;;-0.08;100.00
79455;BME280;68900;52.134;5.420;2023-12-07T07:00:45;102167.06;;;-0.10;100.00
79455;BME280;68900;52.134;5.420;2023-12-07T07:03:11;102176.00;;;-0.14;100.00
79455;BME280;68900;52.134;5.420;2023-12-07T07:05:38;102170.78;;;-0.15;100.00
79455;BME280;68900;52.134;5.420;2023-12-07T07:08:06;102176.06;;;-0.15;100.00
79455;BME280;68900;52.134;5.420;2023-12-07T07:10:34;102171.69;;;-0.16;100.00
79455;BME280;68900;52.134;5.420;2023-12-07T07:13:02;102161.03;;;-0.15;100.00
79455;BME280;68900;52.134;5.420;2023-12-07T07:15:32;102161.78;;;-0.11;100.00
79455;BME280;68900;52.134;5.420;2023-12-07T07:17:59;102172.56;;;-0.16;100.00
79455;BME280;68900;52.134;5.420;2023-12-07T07:20:26;102178.94;;;-0.23;100.00
79455;BME280;68900;52.134;5.420;2023-12-07T07:22:52;102185.25;;;-0.25;100.00
79455;BME280;68900;52.134;5.420;2023-12-07T07:25:19;102175.53;;;-0.26;100.00
79455;BME280;68900;52.134;5.420;2023-12-07T07:27:47;102167.50;;;-0.23;100.00
79455;BME280;68900;52.134;5.420;2023-12-07T07:30:13;102174.59;;;-0.24;100.00
79455;BME280;68900;52.134;5.420;2023-12-07T07:32:43;102174.59;;;-0.24;100.00
79455;BME280;68900;52.134;5.420;2023-12-07T07:35:11;102182.44;;;-0.21;100.00
79455;BME280;68900;52.134;5.420;2023-12-07T07:37:38;102183.41;;;-0.23;100.00
79455;BME280;68900;52.134;5.420;2023-12-07T07:40:05;102181.81;;;-0.29;100.00
79455;BME280;68900;52.134;5.420;2023-12-07T07:42:33;102185.25;;;-0.25;100.00
79455;BME280;68900;52.134;5.420;2023-12-07T07:45:00;102181.69;;;-0.24;100.00
79455;BME280;68900;52.134;5.420;2023-12-07T07:47:26;102177.28;;;-0.25;100.00
79455;BME280;68900;52.134;5.420;2023-12-07T07:49:53;102174.66;;;-0.27;100.00
79455;BME280;68900;52.134;5.420;2023-12-07T07:52:19;102183.56;;;-0.28;100.00
79455;BME280;68900;52.134;5.420;2023-12-07T07:54:46;102186.25;;;-0.29;100.00
79455;BME280;68900;52.134;5.420;2023-12-07T07:57:12;102186.25;;;-0.29;100.00
79455;BME280;68900;52.134;5.420;2023-12-07T07:59:39;102188.00;;;-0.28;100.00
79455;BME280;68900;52.134;5.420;2023-12-07T08:02:05;102187.94;;;-0.27;100.00
79455;BME280;68900;52.134;5.420;2023-12-07T08:04:32;102190.72;;;-0.31;100.00
79455;BME280;68900;52.134;5.420;2023-12-07T08:06:59;102188.19;;;-0.34;100.00
79455;BME280;68900;52.134;5.420;2023-12-07T08:09:25;102181.19;;;-0.37;100.00
79455;BME280;68900;52.134;5.420;2023-12-07T08:11:52;102188.38;;;-0.40;100.00
79455;BME280;68900;52.134;5.420;2023-12-07T08:14:19;102189.34;;;-0.43;100.00
79455;BME280;68900;52.134;5.420;2023-12-07T08:16:45;102191.28;;;-0.48;100.00
79455;BME280;68900;52.134;5.420;2023-12-07T08:19:13;102187.72;;;-0.47;100.00
79455;BME280;68900;52.134;5.420;2023-12-07T08:21:40;102184.97;;;-0.44;100.00
79455;BME280;68900;52.134;5.420;2023-12-07T08:24:06;102185.69;;;-0.39;100.00
79455;BME280;68900;52.134;5.420;2023-12-07T08:26:33;102184.66;;;-0.35;100.00
79455;BME280;68900;52.134;5.420;2023-12-07T08:29:02;102188.22;;;-0.36;100.00
79455;BME280;68900;52.134;5.420;2023-12-07T08:31:30;102180.09;;;-0.30;100.00
79455;BME280;68900;52.134;5.420;2023-12-07T08:34:06;102174.66;;;-0.27;100.00
79455;BME280;68900;52.134;5.420;2023-12-07T08:36:33;102186.97;;;-0.24;100.00
79455;BME280;68900;52.134;5.420;2023-12-07T08:39:00;102186.09;;;-0.25;100.00
79455;BME280;68900;52.134;5.420;2023-12-07T08:41:26;102175.50;;;-0.25;100.00
79455;BME280;68900;52.134;5.420;2023-12-07T08:43:53;102179.91;;;-0.24;100.00
79455;BME280;68900;52.134;5.420;2023-12-07T08:46:19;102187.78;;;-0.22;100.00
79455;BME280;68900;52.134;5.420;2023-12-07T08:48:46;102188.63;;;-0.20;100.00
79455;BME280;68900;52.134;5.420;2023-12-07T08:51:12;102180.63;;;-0.19;100.00
79455;BME280;68900;52.134;5.420;2023-12-07T08:53:39;102176.31;;;-0.23;100.00
79455;BME280;68900;52.134;5.420;2023-12-07T08:56:06;102178.00;;;-0.20;100.00
79455;BME280;68900;52.134;5.420;2023-12-07T08:58:32;102181.59;;;-0.23;100.00
79455;BME280;68900;52.134;5.420;2023-12-07T09:00:59;102171.00;;;-0.23;100.00
79455;BME280;68900;52.134;5.420;2023-12-07T09:03:26;102173.72;;;-0.24;100.00
79455;BME280;68900;52.134;5.420;2023-12-07T09:06:01;102172.81;;;-0.23;100.00
79455;BME280;68900;52.134;5.420;2023-12-07T09:08:29;102178.75;;;-0.17;100.00
79455;BME280;68900;52.134;5.420;2023-12-07T09:10:55;102172.56;;;-0.16;100.00
79455;BME280;68900;52.134;5.420;2023-12-07T09:13:22;102169.03;;;-0.16;100.00
79455;BME280;68900;52.134;5.420;2023-12-07T09:15:49;102161.06;;;-0.16;100.00
79455;BME280;68900;52.134;5.420;2023-12-07T09:18:18;102162.84;;;-0.17;100.00
79455;BME280;68900;52.134;5.420;2023-12-07T09:20:44;102154.91;;;-0.17;100.00
79455;BME280;68900;52.134;5.420;2023-12-07T09:23:14;102159.34;;;-0.17;100.00
79455;BME280;68900;52.134;5.420;2023-12-07T09:25:43;102160.31;;;-0.20;100.00
79455;BME280;68900;52.134;5.420;2023-12-07T09:28:10;102162.97;;;-0.20;100.00
79455;BME280;68900;52.134;5.420;2023-12-07T09:30:38;102154.94;;;-0.18;100.00
79455;BME280;68900;52.134;5.420;2023-12-07T09:33:04;102161.84;;;-0.13;100.00
79455;BME280;68900;52.134;5.420;2023-12-07T09:35:31;102160.88;;;-0.10;100.00
79455;BME280;68900;52.134;5.420;2023-12-07T09:38:01;102164.41;;;-0.10;100.00
79455;BME280;68900;52.134;5.420;2023-12-07T09:40:27;102171.38;;;-0.07;100.00
79455;BME280;68900;52.134;5.420;2023-12-07T09:42:55;102166.91;;;-0.05;100.00
79455;BME280;68900;52.134;5.420;2023-12-07T09:45:22;102167.66;;;-0.02;100.00
79455;BME280;68900;52.134;5.420;2023-12-07T09:47:52;102174.72;;;-0.01;100.00
79455;BME280;68900;52.134;5.420;2023-12-07T09:50:46;102172.06;;;-0.01;100.00
79455;BME280;68900;52.134;5.420;2023-12-07T09:53:12;102163.28;;;-0.03;100.00
79455;BME280;68900;52.134;5.420;2023-12-07T09:55:39;102167.91;;;-0.09;100.00
79455;BME280;68900;52.134;5.420;2023-12-07T09:58:06;102170.63;;;-0.11;100.00
79455;BME280;68900;52.134;5.420;2023-12-07T10:00:37;102166.06;;;-0.07;100.00
79455;BME280;68900;52.134;5.420;2023-12-07T10:03:05;102153.69;;;-0.07;100.00
79455;BME280;68900;52.134;5.420;2023-12-07T10:05:57;102156.34;;;-0.07;100.00
79455;BME280;68900;52.134;5.420;2023-12-07T10:08:32;102160.81;;;-0.09;100.00
79455;BME280;68900;52.134;5.420;2023-12-07T10:11:03;102143.06;;;-0.07;100.00
79455;BME280;68900;52.134;5.420;2023-12-07T10:13:34;102134.13;;;-0.04;100.00
79455;BME280;68900;52.134;5.420;2023-12-07T10:16:06;102134.06;;;-0.01;100.00
79455;BME280;68900;52.134;5.420;2023-12-07T10:18:33;102134.81;;;0.03;100.00
79455;BME280;68900;52.134;5.420;2023-12-07T10:21:00;102125.13;;;0.02;100.00
79455;BME280;68900;52.134;5.420;2023-12-07T10:23:26;102126.13;;;-0.03;100.00
79455;BME280;68900;52.134;5.420;2023-12-07T10:25:54;102110.22;;;-0.03;100.00
79455;BME280;68900;52.134;5.420;2023-12-07T10:28:33;102108.25;;;0.04;100.00
79455;BME280;68900;52.134;5.420;2023-12-07T10:31:00;102107.31;;;0.05;100.00
79455;BME280;68900;52.134;5.420;2023-12-07T10:33:27;102111.66;;;0.08;100.00
79455;BME280;68900;52.134;5.420;2023-12-07T10:35:54;102101.84;;;0.10;100.00
79455;BME280;68900;52.134;5.420;2023-12-07T10:38:21;102104.50;;;0.10;100.00
79455;BME280;68900;52.134;5.420;2023-12-07T10:41:03;102098.28;;;0.11;100.00
79455;BME280;68900;52.134;5.420;2023-12-07T10:43:31;102107.06;;;0.13;100.00
79455;BME280;68900;52.134;5.420;2023-12-07T10:45:59;102100.84;;;0.14;100.00
79455;BME280;68900;52.134;5.420;2023-12-07T10:48:27;102094.69;;;0.12;100.00
79455;BME280;68900;52.134;5.420;2023-12-07T10:50:55;102092.88;;;0.14;100.00
79455;BME280;68900;52.134;5.420;2023-12-07T10:53:34;102085.66;;;0.17;100.00
79455;BME280;68900;52.134;5.420;2023-12-07T10:56:10;102075.94;;;0.18;100.00
79455;BME280;68900;52.134;5.420;2023-12-07T10:58:38;102072.28;;;0.20;100.00
79455;BME280;68900;52.134;5.420;2023-12-07T11:01:08;102080.94;;;0.25;100.00
79455;BME280;68900;52.134;5.420;2023-12-07T11:03:39;102072.94;;;0.27;100.00
79455;BME280;68900;52.134;5.420;2023-12-07T11:06:10;102074.56;;;0.31;100.00
79455;BME280;68900;52.134;5.420;2023-12-07T11:08:54;102074.41;;;0.35;100.00
79455;BME280;68900;52.134;5.420;2023-12-07T11:14:09;102067.34;;;0.34;100.00
79455;BME280;68900;52.134;5.420;2023-12-07T11:16:43;102062.78;;;0.38;100.00
79455;BME280;68900;52.134;5.420;2023-12-07T11:22:01;102047.81;;;0.37;100.00
79455;BME280;68900;52.134;5.420;2023-12-07T11:24:28;102049.59;;;0.36;100.00
79455;BME280;68900;52.134;5.420;2023-12-07T11:26:55;102045.25;;;0.34;100.00
79455;BME280;68900;52.134;5.420;2023-12-07T11:29:28;102034.63;;;0.34;100.00
79455;BME280;68900;52.134;5.420;2023-12-07T11:32:00;102028.41;;;0.35;100.00
79455;BME280;68900;52.134;5.420;2023-12-07T11:34:45;102017.81;;;0.35;100.00
79455;BME280;68900;52.134;5.420;2023-12-07T11:37:15;102024.94;;;0.33;100.00
79455;BME280;68900;52.134;5.420;2023-12-07T11:39:43;102022.19;;;0.36;100.00
79455;BME280;68900;52.134;5.420;2023-12-07T11:42:19;102019.41;;;0.39;100.00
79455;BME280;68900;52.134;5.420;2023-12-07T11:44:50;102005.19;;;0.41;100.00
79455;BME280;68900;52.134;5.420;2023-12-07T11:47:20;102005.06;;;0.44;100.00
79455;BME280;68900;52.134;5.420;2023-12-07T11:49:53;102009.38;;;0.47;100.00
79455;BME280;68900;52.134;5.420;2023-12-07T11:52:20;102005.78;;;0.48;100.00
79455;BME280;68900;52.134;5.420;2023-12-07T11:54:48;102005.66;;;0.51;100.00
79455;BME280;68900;52.134;5.420;2023-12-07T11:57:17;102009.00;;;0.56;100.00
79455;BME280;68900;52.134;5.420;2023-12-07T11:59:44;101998.28;;;0.59;100.00
79455;BME280;68900;52.134;5.420;2023-12-07T12:02:11;101999.09;;;0.61;100.00
79455;BME280;68900;52.134;5.420;2023-12-07T12:04:40;101994.66;;;0.62;100.00
79455;BME280;68900;52.134;5.420;2023-12-07T12:07:07;101989.16;;;0.66;100.00
79455;BME280;68900;52.134;5.420;2023-12-07T12:09:34;101978.53;;;0.66;100.00
79455;BME280;68900;52.134;5.420;2023-12-07T12:12:01;101985.72;;;0.64;100.00
79455;BME280;68900;52.134;5.420;2023-12-07T12:14:28;101982.97;;;0.66;100.00
79455;BME280;68900;52.134;5.420;2023-12-07T12:16:56;101967.88;;;0.68;100.00
79455;BME280;68900;52.134;5.420;2023-12-07T12:19:24;101963.41;;;0.68;100.00
79455;BME280;68900;52.134;5.420;2023-12-07T12:22:01;101957.97;;;0.71;100.00
79455;BME280;68900;52.134;5.420;2023-12-07T12:24:33;101963.09;;;0.76;100.00
79455;BME280;68900;52.134;5.420;2023-12-07T12:27:00;101954.16;;;0.78;100.00
79455;BME280;68900;52.134;5.420;2023-12-07T12:29:28;101952.47;;;0.76;100.00
79455;BME280;68900;52.134;5.420;2023-12-07T12:32:01;101941.69;;;0.80;100.00
79455;BME280;68900;52.134;5.420;2023-12-07T12:34:32;101943.38;;;0.83;100.00
79455;BME280;68900;52.134;5.420;2023-12-07T12:37:01;101941.44;;;0.86;100.00
79455;BME280;68900;52.134;5.420;2023-12-07T12:39:29;101936.03;;;0.88;100.00
79455;BME280;68900;52.134;5.420;2023-12-07T12:42:06;101935.13;;;0.89;100.00
79455;BME280;68900;52.134;5.420;2023-12-07T12:44:32;101927.06;;;0.92;100.00
79455;BME280;68900;52.134;5.420;2023-12-07T12:47:09;101930.38;;;0.97;100.00
79455;BME280;68900;52.134;5.420;2023-12-07T12:49:41;101906.41;;;0.99;100.00
79455;BME280;68900;52.134;5.420;2023-12-07T12:52:14;101900.88;;;1.03;100.00
79455;BME280;68900;52.134;5.420;2023-12-07T12:54:44;101903.25;;;1.11;100.00
79455;BME280;68900;52.134;5.420;2023-12-07T12:57:11;101904.69;;;1.18;100.00
79455;BME280;68900;52.134;5.420;2023-12-07T12:59:38;101887.69;;;1.22;100.00